sensor_id;sensor_type;location;lat;lon;timestamp;temperature;humidity
6008;DHT22;3032;49.484;11.112;2022-10-16T00:01:19;17.90;99.90
6008;DHT22;3032;49.484;11.112;2022-10-16T00:03:47;18.20;99.90
6008;DHT22;3032;49.484;11.112;2022-10-16T00:06:14;18.00;99.90
6008;DHT22;3032;49.484;11.112;2022-10-16T00:08:40;18.10;99.90
6008;DHT22;3032;49.484;11.112;2022-10-16T00:13:40;18.60;99.90
6008;DHT22;3032;49.484;11.112;2022-10-16T00:16:06;18.60;99.90
6008;DHT22;3032;49.484;11.112;2022-10-16T00:18:32;18.20;99.90
6008;DHT22;3032;49.484;11.112;2022-10-16T00:21:06;18.20;99.90
6008;DHT22;3032;49.484;11.112;2022-10-16T00:23:32;18.30;99.90
6008;DHT22;3032;49.484;11.112;2022-10-16T00:26:00;19.20;99.90
6008;DHT22;3032;49.484;11.112;2022-10-16T00:28:27;18.70;99.90
6008;DHT22;3032;49.484;11.112;2022-10-16T00:30:53;19.00;99.90
6008;DHT22;3032;49.484;11.112;2022-10-16T00:33:19;19.00;99.90
6008;DHT22;3032;49.484;11.112;2022-10-16T00:35:45;19.30;99.90
6008;DHT22;3032;49.484;11.112;2022-10-16T00:38:11;19.10;99.90
6008;DHT22;3032;49.484;11.112;2022-10-16T00:40:36;18.80;99.90
6008;DHT22;3032;49.484;11.112;2022-10-16T00:43:02;18.70;99.90
6008;DHT22;3032;49.484;11.112;2022-10-16T00:45:28;18.80;99.90
6008;DHT22;3032;49.484;11.112;2022-10-16T00:47:55;18.90;99.90
6008;DHT22;3032;49.484;11.112;2022-10-16T00:50:32;18.60;99.90
6008;DHT22;3032;49.484;11.112;2022-10-16T00:53:00;18.20;99.90
6008;DHT22;3032;49.484;11.112;2022-10-16T00:55:27;18.10;99.90
6008;DHT22;3032;49.484;11.112;2022-10-16T00:57:56;18.70;99.90
6008;DHT22;3032;49.484;11.112;2022-10-16T01:00:24;18.30;99.90
6008;DHT22;3032;49.484;11.112;2022-10-16T01:02:59;18.60;99.90
6008;DHT22;3032;49.484;11.112;2022-10-16T01:05:33;18.40;99.90
6008;DHT22;3032;49.484;11.112;2022-10-16T01:08:16;19.00;99.90
6008;DHT22;3032;49.484;11.112;2022-10-16T01:10:53;18.70;99.90
6008;DHT22;3032;49.484;11.112;2022-10-16T01:13:33;18.70;99.90
6008;DHT22;3032;49.484;11.112;2022-10-16T01:16:13;18.60;99.90
6008;DHT22;3032;49.484;11.112;2022-10-16T01:18:45;18.10;99.90
6008;DHT22;3032;49.484;11.112;2022-10-16T01:21:35;18.20;99.90
6008;DHT22;3032;49.484;11.112;2022-10-16T01:32:36;18.60;99.90
6008;DHT22;3032;49.484;11.112;2022-10-16T01:38:20;18.00;99.90
6008;DHT22;3032;49.484;11.112;2022-10-16T01:40:26;18.00;99.90
6008;DHT22;3032;49.484;11.112;2022-10-16T01:42:58;18.10;99.90
6008;DHT22;3032;49.484;11.112;2022-10-16T01:45:25;17.90;99.90
6008;DHT22;3032;49.484;11.112;2022-10-16T01:47:53;17.70;99.90
6008;DHT22;3032;49.484;11.112;2022-10-16T01:50:20;17.30;99.90
6008;DHT22;3032;49.484;11.112;2022-10-16T01:52:49;17.10;99.90
6008;DHT22;3032;49.484;11.112;2022-10-16T01:55:20;16.80;99.90
6008;DHT22;3032;49.484;11.112;2022-10-16T01:57:50;16.90;99.90
6008;DHT22;3032;49.484;11.112;2022-10-16T02:00:19;16.80;99.90
6008;DHT22;3032;49.484;11.112;2022-10-16T02:02:48;16.70;99.90
6008;DHT22;3032;49.484;11.112;2022-10-16T02:07:40;16.70;99.90
6008;DHT22;3032;49.484;11.112;2022-10-16T02:10:08;16.70;99.90
6008;DHT22;3032;49.484;11.112;2022-10-16T02:12:36;16.60;99.90
6008;DHT22;3032;49.484;11.112;2022-10-16T02:15:05;16.70;99.90
6008;DHT22;3032;49.484;11.112;2022-10-16T02:17:31;16.90;99.90
6008;DHT22;3032;49.484;11.112;2022-10-16T02:19:58;16.90;99.90
6008;DHT22;3032;49.484;11.112;2022-10-16T02:22:32;17.50;99.90
6008;DHT22;3032;49.484;11.112;2022-10-16T02:25:06;17.40;99.90
6008;DHT22;3032;49.484;11.112;2022-10-16T02:30:29;17.10;99.90
6008;DHT22;3032;49.484;11.112;2022-10-16T02:32:56;17.10;99.90
6008;DHT22;3032;49.484;11.112;2022-10-16T02:35:25;17.20;99.90
6008;DHT22;3032;49.484;11.112;2022-10-16T02:37:51;17.30;99.90
6008;DHT22;3032;49.484;11.112;2022-10-16T02:40:18;17.20;99.90
6008;DHT22;3032;49.484;11.112;2022-10-16T02:42:44;17.20;99.90
6008;DHT22;3032;49.484;11.112;2022-10-16T02:45:11;17.10;99.90
6008;DHT22;3032;49.484;11.112;2022-10-16T02:47:37;17.10;99.90
6008;DHT22;3032;49.484;11.112;2022-10-16T02:50:03;17.00;99.90
6008;DHT22;3032;49.484;11.112;2022-10-16T02:52:28;17.20;99.90
6008;DHT22;3032;49.484;11.112;2022-10-16T02:54:54;17.40;99.90
6008;DHT22;3032;49.484;11.112;2022-10-16T02:57:20;17.90;99.90
6008;DHT22;3032;49.484;11.112;2022-10-16T02:59:45;17.20;99.90
6008;DHT22;3032;49.484;11.112;2022-10-16T03:02:11;17.10;99.90
6008;DHT22;3032;49.484;11.112;2022-10-16T03:04:37;16.90;99.90
6008;DHT22;3032;49.484;11.112;2022-10-16T03:07:02;16.90;99.90
6008;DHT22;3032;49.484;11.112;2022-10-16T03:09:28;16.90;99.90
6008;DHT22;3032;49.484;11.112;2022-10-16T03:11:54;16.80;99.90
6008;DHT22;3032;49.484;11.112;2022-10-16T03:14:19;17.00;99.90
6008;DHT22;3032;49.484;11.112;2022-10-16T03:16:45;16.70;99.90
6008;DHT22;3032;49.484;11.112;2022-10-16T03:19:10;16.90;99.90
6008;DHT22;3032;49.484;11.112;2022-10-16T03:21:36;17.10;99.90
6008;DHT22;3032;49.484;11.112;2022-10-16T03:24:01;17.10;99.90
6008;DHT22;3032;49.484;11.112;2022-10-16T03:26:27;17.10;99.90
6008;DHT22;3032;49.484;11.112;2022-10-16T03:28:53;17.10;99.90
6008;DHT22;3032;49.484;11.112;2022-10-16T03:31:18;17.50;99.90
6008;DHT22;3032;49.484;11.112;2022-10-16T03:33:44;17.20;99.90
6008;DHT22;3032;49.484;11.112;2022-10-16T03:36:09;17.10;99.90
6008;DHT22;3032;49.484;11.112;2022-10-16T03:38:35;17.20;99.90
6008;DHT22;3032;49.484;11.112;2022-10-16T03:41:00;17.30;99.90
6008;DHT22;3032;49.484;11.112;2022-10-16T03:43:26;17.80;99.90
6008;DHT22;3032;49.484;11.112;2022-10-16T03:45:51;17.30;99.90
6008;DHT22;3032;49.484;11.112;2022-10-16T03:48:18;17.20;99.90
6008;DHT22;3032;49.484;11.112;2022-10-16T03:50:44;16.90;99.90
6008;DHT22;3032;49.484;11.112;2022-10-16T03:53:09;16.90;99.90
6008;DHT22;3032;49.484;11.112;2022-10-16T03:55:35;16.60;99.90
6008;DHT22;3032;49.484;11.112;2022-10-16T03:58:01;16.70;99.90
6008;DHT22;3032;49.484;11.112;2022-10-16T04:00:27;16.80;99.90
6008;DHT22;3032;49.484;11.112;2022-10-16T04:02:53;16.90;99.90
6008;DHT22;3032;49.484;11.112;2022-10-16T04:05:19;17.20;99.90
6008;DHT22;3032;49.484;11.112;2022-10-16T04:07:44;17.10;99.90
6008;DHT22;3032;49.484;11.112;2022-10-16T04:10:10;17.20;99.90
6008;DHT22;3032;49.484;11.112;2022-10-16T04:12:36;17.20;99.90
6008;DHT22;3032;49.484;11.112;2022-10-16T04:15:01;16.90;99.90
6008;DHT22;3032;49.484;11.112;2022-10-16T04:17:27;17.00;99.90
6008;DHT22;3032;49.484;11.112;2022-10-16T04:19:53;17.10;99.90
6008;DHT22;3032;49.484;11.112;2022-10-16T04:22:18;17.30;99.90
6008;DHT22;3032;49.484;11.112;2022-10-16T04:24:44;17.30;99.90
6008;DHT22;3032;49.484;11.112;2022-10-16T04:27:09;17.40;99.90
6008;DHT22;3032;49.484;11.112;2022-10-16T04:29:35;17.40;99.90
6008;DHT22;3032;49.484;11.112;2022-10-16T04:32:00;17.30;99.90
6008;DHT22;3032;49.484;11.112;2022-10-16T04:34:26;17.20;99.90
6008;DHT22;3032;49.484;11.112;2022-10-16T04:36:51;17.20;99.90
6008;DHT22;3032;49.484;11.112;2022-10-16T04:39:17;17.70;99.90
6008;DHT22;3032;49.484;11.112;2022-10-16T04:41:43;17.20;99.90
6008;DHT22;3032;49.484;11.112;2022-10-16T04:44:08;17.30;99.90
6008;DHT22;3032;49.484;11.112;2022-10-16T04:46:34;17.30;99.90
6008;DHT22;3032;49.484;11.112;2022-10-16T04:49:00;16.90;99.90
6008;DHT22;3032;49.484;11.112;2022-10-16T04:51:26;16.90;99.90
6008;DHT22;3032;49.484;11.112;2022-10-16T04:53:53;17.40;99.90
6008;DHT22;3032;49.484;11.112;2022-10-16T04:56:19;17.00;99.90
6008;DHT22;3032;49.484;11.112;2022-10-16T04:58:46;17.20;99.90
6008;DHT22;3032;49.484;11.112;2022-10-16T05:01:12;17.80;99.90
6008;DHT22;3032;49.484;11.112;2022-10-16T05:03:37;16.90;99.90
6008;DHT22;3032;49.484;11.112;2022-10-16T05:06:05;16.70;99.90
6008;DHT22;3032;49.484;11.112;2022-10-16T05:08:31;16.70;99.90
6008;DHT22;3032;49.484;11.112;2022-10-16T05:10:56;17.50;99.90
6008;DHT22;3032;49.484;11.112;2022-10-16T05:13:22;17.30;99.90
6008;DHT22;3032;49.484;11.112;2022-10-16T05:15:48;17.30;99.90
6008;DHT22;3032;49.484;11.112;2022-10-16T05:18:15;18.00;99.90
6008;DHT22;3032;49.484;11.112;2022-10-16T05:20:41;17.30;99.90
6008;DHT22;3032;49.484;11.112;2022-10-16T05:23:07;17.30;99.90
6008;DHT22;3032;49.484;11.112;2022-10-16T05:25:33;17.60;99.90
6008;DHT22;3032;49.484;11.112;2022-10-16T05:27:58;17.30;99.90
6008;DHT22;3032;49.484;11.112;2022-10-16T05:30:24;18.00;99.90
6008;DHT22;3032;49.484;11.112;2022-10-16T05:32:50;17.50;99.90
6008;DHT22;3032;49.484;11.112;2022-10-16T05:35:17;17.90;99.90
6008;DHT22;3032;49.484;11.112;2022-10-16T05:37:43;17.30;99.90
6008;DHT22;3032;49.484;11.112;2022-10-16T05:40:09;17.90;99.90
6008;DHT22;3032;49.484;11.112;2022-10-16T05:42:35;17.70;99.90
6008;DHT22;3032;49.484;11.112;2022-10-16T05:45:01;17.80;99.90
6008;DHT22;3032;49.484;11.112;2022-10-16T05:47:27;18.00;99.90
6008;DHT22;3032;49.484;11.112;2022-10-16T05:49:52;18.20;99.90
6008;DHT22;3032;49.484;11.112;2022-10-16T05:52:18;18.30;99.90
6008;DHT22;3032;49.484;11.112;2022-10-16T05:54:44;18.60;99.90
6008;DHT22;3032;49.484;11.112;2022-10-16T05:57:09;18.50;99.90
6008;DHT22;3032;49.484;11.112;2022-10-16T05:59:35;18.60;99.90
6008;DHT22;3032;49.484;11.112;2022-10-16T06:02:00;18.50;99.90
6008;DHT22;3032;49.484;11.112;2022-10-16T06:04:26;18.40;99.90
6008;DHT22;3032;49.484;11.112;2022-10-16T06:06:51;18.30;99.90
6008;DHT22;3032;49.484;11.112;2022-10-16T06:09:17;18.10;99.90
6008;DHT22;3032;49.484;11.112;2022-10-16T06:11:42;18.10;99.90
6008;DHT22;3032;49.484;11.112;2022-10-16T06:14:08;18.20;99.90
6008;DHT22;3032;49.484;11.112;2022-10-16T06:16:36;18.90;99.90
6008;DHT22;3032;49.484;11.112;2022-10-16T06:19:03;18.60;99.90
6008;DHT22;3032;49.484;11.112;2022-10-16T06:21:31;18.40;99.90
6008;DHT22;3032;49.484;11.112;2022-10-16T06:23:58;18.50;99.90
6008;DHT22;3032;49.484;11.112;2022-10-16T06:26:26;18.70;99.90
6008;DHT22;3032;49.484;11.112;2022-10-16T06:28:55;18.70;99.90
6008;DHT22;3032;49.484;11.112;2022-10-16T06:31:21;18.70;99.90
6008;DHT22;3032;49.484;11.112;2022-10-16T06:33:50;18.40;99.90
6008;DHT22;3032;49.484;11.112;2022-10-16T06:36:17;18.40;99.90
6008;DHT22;3032;49.484;11.112;2022-10-16T06:38:43;18.40;99.90
6008;DHT22;3032;49.484;11.112;2022-10-16T06:41:14;18.40;99.90
6008;DHT22;3032;49.484;11.112;2022-10-16T06:43:40;18.70;99.90
6008;DHT22;3032;49.484;11.112;2022-10-16T06:46:07;19.60;99.90
6008;DHT22;3032;49.484;11.112;2022-10-16T06:48:34;21.60;99.90
6008;DHT22;3032;49.484;11.112;2022-10-16T06:51:03;23.00;99.90
6008;DHT22;3032;49.484;11.112;2022-10-16T06:53:32;23.80;99.90
6008;DHT22;3032;49.484;11.112;2022-10-16T06:55:58;23.70;99.90
6008;DHT22;3032;49.484;11.112;2022-10-16T06:58:31;22.60;99.90
6008;DHT22;3032;49.484;11.112;2022-10-16T07:00:56;21.10;99.90
6008;DHT22;3032;49.484;11.112;2022-10-16T07:03:22;20.50;99.90
6008;DHT22;3032;49.484;11.112;2022-10-16T07:05:48;19.80;99.90
6008;DHT22;3032;49.484;11.112;2022-10-16T07:08:13;19.70;99.90
6008;DHT22;3032;49.484;11.112;2022-10-16T07:10:39;19.20;99.90
6008;DHT22;3032;49.484;11.112;2022-10-16T07:13:04;19.00;99.90
6008;DHT22;3032;49.484;11.112;2022-10-16T07:15:32;18.90;99.90
6008;DHT22;3032;49.484;11.112;2022-10-16T07:17:58;19.40;99.90
6008;DHT22;3032;49.484;11.112;2022-10-16T07:20:23;19.20;99.90
6008;DHT22;3032;49.484;11.112;2022-10-16T07:22:49;19.40;99.90
6008;DHT22;3032;49.484;11.112;2022-10-16T07:25:14;18.90;99.90
6008;DHT22;3032;49.484;11.112;2022-10-16T07:27:40;18.50;99.90
6008;DHT22;3032;49.484;11.112;2022-10-16T07:30:06;18.70;99.90
6008;DHT22;3032;49.484;11.112;2022-10-16T07:32:32;18.90;99.90
6008;DHT22;3032;49.484;11.112;2022-10-16T07:34:57;19.20;99.90
6008;DHT22;3032;49.484;11.112;2022-10-16T07:37:23;19.40;99.90
6008;DHT22;3032;49.484;11.112;2022-10-16T07:39:48;19.40;99.90
6008;DHT22;3032;49.484;11.112;2022-10-16T07:42:14;19.40;99.90
6008;DHT22;3032;49.484;11.112;2022-10-16T07:44:40;19.70;99.90
6008;DHT22;3032;49.484;11.112;2022-10-16T07:47:06;19.50;99.90
6008;DHT22;3032;49.484;11.112;2022-10-16T07:49:31;19.40;99.90
6008;DHT22;3032;49.484;11.112;2022-10-16T07:51:57;19.00;99.90
6008;DHT22;3032;49.484;11.112;2022-10-16T07:54:23;19.60;99.90
6008;DHT22;3032;49.484;11.112;2022-10-16T07:56:48;19.00;99.90
6008;DHT22;3032;49.484;11.112;2022-10-16T07:59:14;18.60;99.90
6008;DHT22;3032;49.484;11.112;2022-10-16T08:01:40;18.50;99.90
6008;DHT22;3032;49.484;11.112;2022-10-16T08:04:08;18.50;99.90
6008;DHT22;3032;49.484;11.112;2022-10-16T08:06:36;18.70;99.90
6008;DHT22;3032;49.484;11.112;2022-10-16T08:09:02;19.40;99.90
6008;DHT22;3032;49.484;11.112;2022-10-16T08:11:27;19.30;99.90
6008;DHT22;3032;49.484;11.112;2022-10-16T08:13:53;19.60;99.90
6008;DHT22;3032;49.484;11.112;2022-10-16T08:16:19;19.70;99.90
6008;DHT22;3032;49.484;11.112;2022-10-16T08:18:44;20.10;99.90
6008;DHT22;3032;49.484;11.112;2022-10-16T08:21:15;19.30;99.90
6008;DHT22;3032;49.484;11.112;2022-10-16T08:23:41;19.80;99.90
6008;DHT22;3032;49.484;11.112;2022-10-16T08:26:08;19.20;99.90
6008;DHT22;3032;49.484;11.112;2022-10-16T08:28:34;19.20;99.90
6008;DHT22;3032;49.484;11.112;2022-10-16T08:31:13;19.40;99.90
6008;DHT22;3032;49.484;11.112;2022-10-16T08:33:41;19.40;99.90
6008;DHT22;3032;49.484;11.112;2022-10-16T08:36:07;19.80;99.90
6008;DHT22;3032;49.484;11.112;2022-10-16T08:38:34;19.50;99.90
6008;DHT22;3032;49.484;11.112;2022-10-16T08:41:22;19.50;99.90
6008;DHT22;3032;49.484;11.112;2022-10-16T08:47:17;19.90;99.90
6008;DHT22;3032;49.484;11.112;2022-10-16T08:49:57;19.90;99.90
6008;DHT22;3032;49.484;11.112;2022-10-16T08:52:28;19.90;99.90
6008;DHT22;3032;49.484;11.112;2022-10-16T08:54:55;20.10;99.90
6008;DHT22;3032;49.484;11.112;2022-10-16T08:57:22;20.30;99.90
6008;DHT22;3032;49.484;11.112;2022-10-16T08:59:49;21.00;99.90
6008;DHT22;3032;49.484;11.112;2022-10-16T09:02:29;21.20;99.90
6008;DHT22;3032;49.484;11.112;2022-10-16T09:05:08;21.60;99.90
6008;DHT22;3032;49.484;11.112;2022-10-16T09:12:57;21.70;99.90
6008;DHT22;3032;49.484;11.112;2022-10-16T09:15:34;22.40;99.90
6008;DHT22;3032;49.484;11.112;2022-10-16T09:18:13;21.90;99.90
6008;DHT22;3032;49.484;11.112;2022-10-16T09:23:29;21.50;99.90
6008;DHT22;3032;49.484;11.112;2022-10-16T09:25:56;21.60;99.90
6008;DHT22;3032;49.484;11.112;2022-10-16T09:28:24;22.20;99.90
6008;DHT22;3032;49.484;11.112;2022-10-16T09:30:50;22.60;99.90
6008;DHT22;3032;49.484;11.112;2022-10-16T09:33:17;22.50;99.90
6008;DHT22;3032;49.484;11.112;2022-10-16T09:35:50;23.00;99.90
6008;DHT22;3032;49.484;11.112;2022-10-16T09:38:30;22.60;99.90
6008;DHT22;3032;49.484;11.112;2022-10-16T09:40:58;23.00;99.90
6008;DHT22;3032;49.484;11.112;2022-10-16T09:43:34;23.20;99.90
6008;DHT22;3032;49.484;11.112;2022-10-16T09:46:03;23.10;99.90
6008;DHT22;3032;49.484;11.112;2022-10-16T09:48:48;22.20;99.90
6008;DHT22;3032;49.484;11.112;2022-10-16T09:51:26;22.30;99.90
6008;DHT22;3032;49.484;11.112;2022-10-16T09:53:56;22.40;99.90
6008;DHT22;3032;49.484;11.112;2022-10-16T09:56:25;22.80;99.90
6008;DHT22;3032;49.484;11.112;2022-10-16T09:58:53;22.20;99.90
6008;DHT22;3032;49.484;11.112;2022-10-16T10:01:20;21.90;99.90
6008;DHT22;3032;49.484;11.112;2022-10-16T10:03:46;22.30;99.90
6008;DHT22;3032;49.484;11.112;2022-10-16T10:06:17;21.90;99.90
6008;DHT22;3032;49.484;11.112;2022-10-16T10:09:22;22.70;99.90
6008;DHT22;3032;49.484;11.112;2022-10-16T10:16:48;22.50;99.90
6008;DHT22;3032;49.484;11.112;2022-10-16T10:19:23;22.10;99.90
6008;DHT22;3032;49.484;11.112;2022-10-16T10:21:50;22.10;99.90
6008;DHT22;3032;49.484;11.112;2022-10-16T10:24:18;22.40;99.90
6008;DHT22;3032;49.484;11.112;2022-10-16T10:30:04;23.50;99.90
6008;DHT22;3032;49.484;11.112;2022-10-16T10:32:55;23.80;99.90
6008;DHT22;3032;49.484;11.112;2022-10-16T10:35:35;23.80;99.90
6008;DHT22;3032;49.484;11.112;2022-10-16T10:38:38;23.70;99.90
6008;DHT22;3032;49.484;11.112;2022-10-16T10:41:11;24.30;99.90
6008;DHT22;3032;49.484;11.112;2022-10-16T10:44:05;24.50;99.90
6008;DHT22;3032;49.484;11.112;2022-10-16T10:46:56;24.10;99.90
6008;DHT22;3032;49.484;11.112;2022-10-16T10:49:59;24.00;99.90
6008;DHT22;3032;49.484;11.112;2022-10-16T11:01:12;25.50;99.90
6008;DHT22;3032;49.484;11.112;2022-10-16T11:04:01;25.80;99.90
6008;DHT22;3032;49.484;11.112;2022-10-16T11:06:36;26.20;99.90
6008;DHT22;3032;49.484;11.112;2022-10-16T11:09:26;26.00;99.90
6008;DHT22;3032;49.484;11.112;2022-10-16T11:11:58;26.00;99.90
6008;DHT22;3032;49.484;11.112;2022-10-16T11:14:34;25.90;99.90
6008;DHT22;3032;49.484;11.112;2022-10-16T11:20:34;26.10;99.90
6008;DHT22;3032;49.484;11.112;2022-10-16T11:25:33;26.30;99.90
6008;DHT22;3032;49.484;11.112;2022-10-16T11:28:15;25.90;99.90
6008;DHT22;3032;49.484;11.112;2022-10-16T11:30:49;25.10;99.90
6008;DHT22;3032;49.484;11.112;2022-10-16T11:33:25;25.30;99.90
6008;DHT22;3032;49.484;11.112;2022-10-16T11:36:04;25.80;99.90
6008;DHT22;3032;49.484;11.112;2022-10-16T11:41:34;25.30;99.90
6008;DHT22;3032;49.484;11.112;2022-10-16T11:44:18;25.50;99.90
6008;DHT22;3032;49.484;11.112;2022-10-16T11:46:59;25.50;99.90
6008;DHT22;3032;49.484;11.112;2022-10-16T11:49:28;25.90;99.90
6008;DHT22;3032;49.484;11.112;2022-10-16T11:57:34;26.10;99.90
6008;DHT22;3032;49.484;11.112;2022-10-16T12:00:20;26.70;99.90
6008;DHT22;3032;49.484;11.112;2022-10-16T12:03:42;26.70;99.90
6008;DHT22;3032;49.484;11.112;2022-10-16T12:08:19;27.20;99.90
6008;DHT22;3032;49.484;11.112;2022-10-16T12:10:47;27.50;99.90
6008;DHT22;3032;49.484;11.112;2022-10-16T12:18:46;26.40;99.90
6008;DHT22;3032;49.484;11.112;2022-10-16T12:21:16;25.90;99.90
6008;DHT22;3032;49.484;11.112;2022-10-16T12:23:55;25.90;99.90
6008;DHT22;3032;49.484;11.112;2022-10-16T12:26:37;25.90;99.90
6008;DHT22;3032;49.484;11.112;2022-10-16T12:29:14;25.30;99.90
6008;DHT22;3032;49.484;11.112;2022-10-16T12:31:47;24.40;99.90
6008;DHT22;3032;49.484;11.112;2022-10-16T12:34:38;23.90;99.90
6008;DHT22;3032;49.484;11.112;2022-10-16T12:37:20;23.50;99.90
6008;DHT22;3032;49.484;11.112;2022-10-16T12:39:47;23.60;99.90
6008;DHT22;3032;49.484;11.112;2022-10-16T12:44:51;24.50;99.90
6008;DHT22;3032;49.484;11.112;2022-10-16T12:47:22;25.00;99.90
6008;DHT22;3032;49.484;11.112;2022-10-16T12:49:53;25.00;99.90
6008;DHT22;3032;49.484;11.112;2022-10-16T12:52:36;25.30;99.90
6008;DHT22;3032;49.484;11.112;2022-10-16T12:55:03;25.50;99.90
6008;DHT22;3032;49.484;11.112;2022-10-16T13:00:45;26.20;99.90
6008;DHT22;3032;49.484;11.112;2022-10-16T13:11:27;26.70;99.90
6008;DHT22;3032;49.484;11.112;2022-10-16T13:17:13;27.20;99.90
6008;DHT22;3032;49.484;11.112;2022-10-16T13:23:02;26.40;99.90
6008;DHT22;3032;49.484;11.112;2022-10-16T13:28:11;27.00;99.90
6008;DHT22;3032;49.484;11.112;2022-10-16T13:30:51;27.10;99.90
6008;DHT22;3032;49.484;11.112;2022-10-16T13:33:41;27.00;99.90
6008;DHT22;3032;49.484;11.112;2022-10-16T13:36:21;26.00;99.90
6008;DHT22;3032;49.484;11.112;2022-10-16T13:38:47;24.50;99.90
6008;DHT22;3032;49.484;11.112;2022-10-16T13:41:16;24.80;99.90
6008;DHT22;3032;49.484;11.112;2022-10-16T13:44:00;25.10;99.90
6008;DHT22;3032;49.484;11.112;2022-10-16T13:46:26;25.40;99.90
6008;DHT22;3032;49.484;11.112;2022-10-16T13:48:58;25.60;99.90
6008;DHT22;3032;49.484;11.112;2022-10-16T13:51:26;26.40;99.90
6008;DHT22;3032;49.484;11.112;2022-10-16T13:53:52;26.30;99.90
6008;DHT22;3032;49.484;11.112;2022-10-16T13:56:20;26.30;99.90
6008;DHT22;3032;49.484;11.112;2022-10-16T13:58:57;25.40;99.90
6008;DHT22;3032;49.484;11.112;2022-10-16T14:01:26;24.90;99.90
6008;DHT22;3032;49.484;11.112;2022-10-16T14:03:52;24.30;99.90
6008;DHT22;3032;49.484;11.112;2022-10-16T14:06:20;24.10;99.90
6008;DHT22;3032;49.484;11.112;2022-10-16T14:08:56;25.10;99.90
6008;DHT22;3032;49.484;11.112;2022-10-16T14:11:23;24.50;99.90
6008;DHT22;3032;49.484;11.112;2022-10-16T14:13:49;25.10;99.90
6008;DHT22;3032;49.484;11.112;2022-10-16T14:16:18;24.80;99.90
6008;DHT22;3032;49.484;11.112;2022-10-16T14:18:49;24.10;99.90
6008;DHT22;3032;49.484;11.112;2022-10-16T14:21:18;23.30;99.90
6008;DHT22;3032;49.484;11.112;2022-10-16T14:23:44;23.10;99.90
6008;DHT22;3032;49.484;11.112;2022-10-16T14:28:37;24.00;99.90
6008;DHT22;3032;49.484;11.112;2022-10-16T14:31:31;24.20;99.90
6008;DHT22;3032;49.484;11.112;2022-10-16T14:33:57;24.00;99.90
6008;DHT22;3032;49.484;11.112;2022-10-16T14:36:24;24.30;99.90
6008;DHT22;3032;49.484;11.112;2022-10-16T14:39:03;24.10;99.90
6008;DHT22;3032;49.484;11.112;2022-10-16T14:41:31;24.20;99.90
6008;DHT22;3032;49.484;11.112;2022-10-16T14:44:02;24.10;99.90
6008;DHT22;3032;49.484;11.112;2022-10-16T14:46:34;24.40;99.90
6008;DHT22;3032;49.484;11.112;2022-10-16T14:49:11;24.50;99.90
6008;DHT22;3032;49.484;11.112;2022-10-16T14:51:39;24.70;99.90
6008;DHT22;3032;49.484;11.112;2022-10-16T14:54:11;24.50;99.90
6008;DHT22;3032;49.484;11.112;2022-10-16T14:56:55;24.40;99.90
6008;DHT22;3032;49.484;11.112;2022-10-16T14:59:27;23.90;99.90
6008;DHT22;3032;49.484;11.112;2022-10-16T15:01:53;24.00;99.90
6008;DHT22;3032;49.484;11.112;2022-10-16T15:04:19;24.60;99.90
6008;DHT22;3032;49.484;11.112;2022-10-16T15:06:45;24.50;99.90
6008;DHT22;3032;49.484;11.112;2022-10-16T15:09:10;24.70;99.90
6008;DHT22;3032;49.484;11.112;2022-10-16T15:11:36;24.90;99.90
6008;DHT22;3032;49.484;11.112;2022-10-16T15:14:02;25.00;99.90
6008;DHT22;3032;49.484;11.112;2022-10-16T15:16:28;25.20;99.90
6008;DHT22;3032;49.484;11.112;2022-10-16T15:18:54;25.10;99.90
6008;DHT22;3032;49.484;11.112;2022-10-16T15:21:26;25.00;99.90
6008;DHT22;3032;49.484;11.112;2022-10-16T15:23:52;25.10;99.90
6008;DHT22;3032;49.484;11.112;2022-10-16T15:26:18;25.10;99.90
6008;DHT22;3032;49.484;11.112;2022-10-16T15:28:44;25.10;99.90
6008;DHT22;3032;49.484;11.112;2022-10-16T15:31:09;25.30;99.90
6008;DHT22;3032;49.484;11.112;2022-10-16T15:33:35;24.90;99.90
6008;DHT22;3032;49.484;11.112;2022-10-16T15:36:01;24.70;99.90
6008;DHT22;3032;49.484;11.112;2022-10-16T15:38:28;25.00;99.90
6008;DHT22;3032;49.484;11.112;2022-10-16T15:40:54;24.90;99.90
6008;DHT22;3032;49.484;11.112;2022-10-16T15:43:20;24.60;99.90
6008;DHT22;3032;49.484;11.112;2022-10-16T15:46:04;24.60;99.90
6008;DHT22;3032;49.484;11.112;2022-10-16T15:48:31;24.60;99.90
6008;DHT22;3032;49.484;11.112;2022-10-16T15:50:56;24.30;99.90
6008;DHT22;3032;49.484;11.112;2022-10-16T15:53:22;24.00;99.90
6008;DHT22;3032;49.484;11.112;2022-10-16T15:55:48;24.00;99.90
6008;DHT22;3032;49.484;11.112;2022-10-16T15:58:14;24.60;99.90
6008;DHT22;3032;49.484;11.112;2022-10-16T16:00:40;24.00;99.90
6008;DHT22;3032;49.484;11.112;2022-10-16T16:03:05;24.00;99.90
6008;DHT22;3032;49.484;11.112;2022-10-16T16:05:31;24.10;99.90
6008;DHT22;3032;49.484;11.112;2022-10-16T16:07:58;24.00;99.90
6008;DHT22;3032;49.484;11.112;2022-10-16T16:10:24;24.00;99.90
6008;DHT22;3032;49.484;11.112;2022-10-16T16:12:50;24.20;99.90
6008;DHT22;3032;49.484;11.112;2022-10-16T16:15:19;24.50;99.90
6008;DHT22;3032;49.484;11.112;2022-10-16T16:17:44;24.60;99.90
6008;DHT22;3032;49.484;11.112;2022-10-16T16:20:11;23.90;99.90
6008;DHT22;3032;49.484;11.112;2022-10-16T16:22:36;23.80;99.90
6008;DHT22;3032;49.484;11.112;2022-10-16T16:25:02;23.80;99.90
6008;DHT22;3032;49.484;11.112;2022-10-16T16:27:28;23.70;99.90
6008;DHT22;3032;49.484;11.112;2022-10-16T16:29:55;23.80;99.90
6008;DHT22;3032;49.484;11.112;2022-10-16T16:32:21;24.30;99.90
6008;DHT22;3032;49.484;11.112;2022-10-16T16:34:47;24.20;99.90
6008;DHT22;3032;49.484;11.112;2022-10-16T16:37:12;23.60;99.90
6008;DHT22;3032;49.484;11.112;2022-10-16T16:39:38;23.40;99.90
6008;DHT22;3032;49.484;11.112;2022-10-16T16:42:04;22.90;99.90
6008;DHT22;3032;49.484;11.112;2022-10-16T16:44:31;22.50;99.90
6008;DHT22;3032;49.484;11.112;2022-10-16T16:46:57;22.60;99.90
6008;DHT22;3032;49.484;11.112;2022-10-16T16:49:23;23.30;99.90
6008;DHT22;3032;49.484;11.112;2022-10-16T16:51:48;22.70;99.90
6008;DHT22;3032;49.484;11.112;2022-10-16T16:54:14;22.80;99.90
6008;DHT22;3032;49.484;11.112;2022-10-16T16:56:40;23.30;99.90
6008;DHT22;3032;49.484;11.112;2022-10-16T16:59:17;22.80;99.90
6008;DHT22;3032;49.484;11.112;2022-10-16T17:01:43;23.00;99.90
6008;DHT22;3032;49.484;11.112;2022-10-16T17:04:09;22.80;99.90
6008;DHT22;3032;49.484;11.112;2022-10-16T17:06:35;22.50;99.90
6008;DHT22;3032;49.484;11.112;2022-10-16T17:09:03;22.40;99.90
6008;DHT22;3032;49.484;11.112;2022-10-16T17:11:29;22.50;99.90
6008;DHT22;3032;49.484;11.112;2022-10-16T17:13:56;23.00;99.90
6008;DHT22;3032;49.484;11.112;2022-10-16T17:16:27;22.70;99.90
6008;DHT22;3032;49.484;11.112;2022-10-16T17:18:53;22.00;99.90
6008;DHT22;3032;49.484;11.112;2022-10-16T17:21:19;22.30;99.90
6008;DHT22;3032;49.484;11.112;2022-10-16T17:23:44;22.20;99.90
6008;DHT22;3032;49.484;11.112;2022-10-16T17:26:17;21.70;99.90
6008;DHT22;3032;49.484;11.112;2022-10-16T17:28:43;21.50;99.90
6008;DHT22;3032;49.484;11.112;2022-10-16T17:31:15;21.80;99.90
6008;DHT22;3032;49.484;11.112;2022-10-16T17:33:41;21.20;99.90